Time;durP1;ratioP1;P1;durP2;ratioP2;P2;SDS_P1;SDS_P2;PMS_P1;PMS_P2;Temp;Humidity;BMP_temperature;BMP_pressure;BME280_temperature;BME280_humidity;BME280_pressure;Samples;Min_cycle;Max_cycle;Signal;HPM_P1;HPM_P2
2021/11/21 00:00:30;;;;;;;23.90;11.15;;;;;;;5.22;100.00;98813.47;5058837;28;20020;-68
2021/11/21 00:02:56;;;;;;;24.73;11.68;;;;;;;5.17;100.00;98811.72;5059879;28;20017;-68
2021/11/21 00:05:21;;;;;;;29.80;12.70;;;;;;;5.16;100.00;98803.00;5060508;28;20343;-68
2021/11/21 00:07:46;;;;;;;26.35;11.45;;;;;;;5.26;100.00;98803.94;5061685;28;20224;-68
2021/11/21 00:10:12;;;;;;;32.45;13.25;;;;;;;5.26;100.00;98798.72;5054177;28;20044;-68
2021/11/21 00:12:38;;;;;;;31.30;12.48;;;;;;;5.35;100.00;98798.75;5048711;28;20312;-68
2021/11/21 00:15:05;;;;;;;30.05;12.60;;;;;;;5.43;100.00;98789.22;5057513;28;20340;-68
2021/11/21 00:17:30;;;;;;;29.67;13.32;;;;;;;5.44;100.00;98791.81;5057205;28;20028;-68
2021/11/21 00:19:55;;;;;;;26.73;12.15;;;;;;;5.51;100.00;98795.34;5057823;28;20029;-68
2021/11/21 00:22:21;;;;;;;34.63;13.68;;;;;;;5.50;100.00;98793.56;5052769;28;20063;-68
2021/11/21 00:24:46;;;;;;;33.70;14.10;;;;;;;5.53;100.00;98788.38;5053876;28;20040;-68
2021/11/21 00:27:12;;;;;;;29.35;13.32;;;;;;;5.54;100.00;98787.53;5055777;28;20018;-68
2021/11/21 00:29:38;;;;;;;27.80;12.45;;;;;;;5.55;100.00;98781.41;5053651;28;20076;-68
2021/11/21 00:32:04;;;;;;;26.48;12.20;;;;;;;5.53;100.00;98788.38;5058017;28;20067;-68
2021/11/21 00:34:30;;;;;;;28.83;11.10;;;;;;;5.50;99.98;98793.56;5050315;28;20088;-68
2021/11/21 00:36:56;;;;;;;25.13;11.48;;;;;;;5.40;100.00;98786.59;5052024;28;20025;-68
2021/11/21 00:39:22;;;;;;;21.50;9.80;;;;;;;5.48;99.38;98790.09;5059592;28;20213;-68
2021/11/21 00:41:47;;;;;;;23.90;11.30;;;;;;;5.47;99.32;98777.94;5050734;28;20045;-68
2021/11/21 00:44:13;;;;;;;25.17;11.73;;;;;;;5.41;99.58;98783.13;5051695;28;20025;-68
2021/11/21 00:46:38;;;;;;;23.92;11.10;;;;;;;5.41;100.00;98783.13;5050074;28;20213;-68
2021/11/21 00:49:07;;;;;;;32.05;13.13;;;;;;;5.26;100.00;98788.28;5053144;28;20014;-68
2021/11/21 00:51:33;;;;;;;36.35;13.88;;;;;;;5.27;100.00;98779.59;5052415;28;20025;-68
2021/11/21 00:54:08;;;;;;;33.75;13.75;;;;;;;5.25;99.99;98776.13;5058873;28;20016;-68
2021/11/21 00:56:33;;;;;;;35.45;14.93;;;;;;;5.18;99.67;98770.00;5061106;28;20423;-68
2021/11/21 00:58:58;;;;;;;30.42;12.60;;;;;;;5.20;99.92;98762.16;5050932;28;20017;-68
2021/11/21 01:01:24;;;;;;;28.40;12.35;;;;;;;5.18;100.00;98769.09;5054063;28;20067;-68
2021/11/21 01:03:49;;;;;;;25.73;11.70;;;;;;;5.22;99.78;98770.88;5047456;28;20075;-68
2021/11/21 01:06:15;;;;;;;31.05;13.15;;;;;;;5.20;99.72;98756.94;5046529;28;20120;-68
2021/11/21 01:08:40;;;;;;;23.13;10.77;;;;;;;5.18;99.47;98758.66;5052847;28;20025;-68
2021/11/21 01:11:06;;;;;;;27.85;11.07;;;;;;;5.15;100.00;98753.44;5057346;28;20017;-68
2021/11/21 01:13:34;;;;;;;27.60;12.18;;;;;;;5.15;100.00;98759.53;5056238;28;20102;-68
2021/11/21 01:16:00;;;;;;;21.80;10.00;;;;;;;5.15;100.00;98756.03;5053803;28;20044;-68
2021/11/21 01:18:26;;;;;;;22.70;9.70;;;;;;;5.15;99.56;98753.44;5049541;28;20078;-68
2021/11/21 01:20:51;;;;;;;18.38;9.50;;;;;;;5.09;99.17;98754.28;5052673;28;20025;-68
2021/11/21 01:23:17;;;;;;;18.40;8.65;;;;;;;5.02;99.15;98751.66;5055898;28;20040;-68
2021/11/21 01:25:44;;;;;;;15.05;7.45;;;;;;;4.94;98.80;98742.94;5057306;28;20043;-68
2021/11/21 01:28:10;;;;;;;18.90;9.15;;;;;;;4.88;99.32;98748.13;5054874;28;20033;-68
2021/11/21 01:30:36;;;;;;;18.95;9.02;;;;;;;4.93;99.36;98741.19;5062034;28;20029;-68
2021/11/21 01:33:02;;;;;;;18.55;7.75;;;;;;;4.88;98.97;98742.91;5066875;28;20046;-68
2021/11/21 01:35:29;;;;;;;15.93;7.35;;;;;;;4.83;99.12;98735.06;5063775;28;20033;-68
2021/11/21 01:37:54;;;;;;;11.80;5.95;;;;;;;4.76;98.82;98737.63;5062387;28;20021;-68
2021/11/21 01:40:21;;;;;;;13.00;6.20;;;;;;;4.77;99.55;98736.78;5062464;28;20255;-68
2021/11/21 01:42:48;;;;;;;11.00;5.63;;;;;;;4.84;99.82;98735.94;5058638;28;20065;-68
2021/11/21 01:45:14;;;;;;;11.98;5.70;;;;;;;4.76;99.24;98728.06;5068409;28;20029;-68
2021/11/21 01:47:42;;;;;;;11.98;6.30;;;;;;;4.83;99.76;98726.34;5069738;28;20031;-68
2021/11/21 01:50:10;;;;;;;12.23;5.88;;;;;;;4.83;99.02;98713.31;5068626;28;20025;-68
2021/11/21 01:52:35;;;;;;;12.23;5.00;;;;;;;4.77;99.32;98713.31;5052254;28;20360;-68
2021/11/21 01:55:02;;;;;;;11.27;5.57;;;;;;;4.78;99.62;98720.25;5064357;28;20017;-68
2021/11/21 01:57:27;;;;;;;9.68;4.43;;;;;;;4.77;100.00;98722.00;5058915;28;20021;-68
2021/11/21 01:59:52;;;;;;;12.77;5.78;;;;;;;4.75;99.79;98718.53;5060371;28;20040;-68
2021/11/21 02:02:18;;;;;;;12.13;4.95;;;;;;;4.83;99.62;98718.53;5060970;28;20255;-68
2021/11/21 02:04:44;;;;;;;10.55;4.70;;;;;;;4.75;99.73;98702.00;5061552;28;20351;-68
2021/11/21 02:07:09;;;;;;;9.20;4.22;;;;;;;4.82;99.79;98693.31;5060003;28;20033;-68
2021/11/21 02:09:34;;;;;;;9.95;4.60;;;;;;;4.77;99.79;98697.66;5063380;28;20020;-68
2021/11/21 02:11:59;;;;;;;9.70;4.63;;;;;;;4.80;99.59;98687.22;5059779;28;20029;-68
2021/11/21 02:14:25;;;;;;;10.10;4.57;;;;;;;4.80;99.71;98687.22;5064046;28;20084;-68
2021/11/21 02:16:50;;;;;;;11.15;5.47;;;;;;;4.78;99.98;98678.53;5057017;28;20045;-68
2021/11/21 02:19:18;;;;;;;10.95;4.85;;;;;;;4.70;100.00;98669.81;5055162;28;20033;-68
2021/11/21 02:21:44;;;;;;;9.20;4.50;;;;;;;4.73;100.00;98670.69;5061237;28;20024;-68
2021/11/21 02:24:09;;;;;;;13.27;5.60;;;;;;;4.78;100.00;98666.34;5060730;28;20217;-68
2021/11/21 02:26:34;;;;;;;10.55;4.78;;;;;;;4.77;100.00;98666.38;5063099;28;20021;-68
2021/11/21 02:29:00;;;;;;;10.65;4.80;;;;;;;4.72;100.00;98657.66;5058289;28;20025;-68
2021/11/21 02:31:25;;;;;;;9.98;4.65;;;;;;;4.74;100.00;98658.56;5062175;28;20029;-68
2021/11/21 02:33:51;;;;;;;12.00;5.45;;;;;;;4.77;100.00;98650.75;5056451;28;20317;-68
2021/11/21 02:36:18;;;;;;;14.82;5.95;;;;;;;4.71;100.00;98650.72;5055652;28;20025;-68
2021/11/21 02:38:44;;;;;;;15.88;6.18;;;;;;;4.72;100.00;98649.84;5055141;28;20021;-68
2021/11/21 02:41:10;;;;;;;15.75;6.55;;;;;;;4.79;100.00;98643.78;5057536;28;20047;-68
2021/11/21 02:43:37;;;;;;;16.00;6.40;;;;;;;4.74;100.00;98645.50;5058842;28;20304;-68
2021/11/21 02:46:02;;;;;;;10.45;5.15;;;;;;;4.80;100.00;98643.78;5055446;28;20063;-68
2021/11/21 02:48:30;;;;;;;10.65;5.50;;;;;;;4.76;100.00;98636.81;5066178;28;20028;-68
2021/11/21 02:50:56;;;;;;;9.82;4.47;;;;;;;4.75;100.00;98635.09;5066158;28;20017;-68
2021/11/21 02:53:26;;;;;;;8.77;4.50;;;;;;;4.79;99.80;98634.22;5065028;28;20088;-68
2021/11/21 02:55:52;;;;;;;8.95;4.35;;;;;;;4.76;99.92;98628.13;5060581;28;20198;-68
2021/11/21 02:58:18;;;;;;;8.55;4.15;;;;;;;4.74;99.70;98635.09;5056468;28;20317;-68
2021/11/21 03:00:44;;;;;;;7.32;3.58;;;;;;;4.71;99.41;98632.47;5058383;28;20027;-68
2021/11/21 03:03:12;;;;;;;9.35;4.53;;;;;;;4.73;99.02;98629.00;5057142;28;20320;-68
2021/11/21 03:05:38;;;;;;;7.22;3.25;;;;;;;4.71;98.95;98630.72;5059809;28;20025;-68
2021/11/21 03:08:04;;;;;;;8.00;4.43;;;;;;;4.68;98.58;98614.22;5063028;28;20193;-68
2021/11/21 03:10:30;;;;;;;9.63;4.15;;;;;;;4.64;98.77;98622.84;5063299;28;20324;-68
2021/11/21 03:13:02;;;;;;;7.03;3.53;;;;;;;4.64;99.23;98622.84;5059746;28;20032;-68
2021/11/21 03:15:28;;;;;;;8.32;3.88;;;;;;;4.63;99.01;98621.13;5054539;28;20037;-68
2021/11/21 03:17:54;;;;;;;9.63;3.63;;;;;;;4.70;99.01;98622.88;5053066;28;20194;-68
2021/11/21 03:20:25;;;;;;;8.93;4.50;;;;;;;4.63;99.38;98618.53;5055224;28;20018;-68
2021/11/21 03:22:50;;;;;;;9.63;4.32;;;;;;;4.68;99.28;98622.03;5057499;28;20021;-68
2021/11/21 03:25:16;;;;;;;8.38;4.40;;;;;;;4.73;98.72;98617.69;5059272;28;20078;-68
2021/11/21 03:27:42;;;;;;;9.02;3.78;;;;;;;4.72;98.97;98618.56;5062107;28;20325;-68
2021/11/21 03:30:14;;;;;;;8.63;4.05;;;;;;;4.74;99.02;98619.44;5061227;28;20033;-68
2021/11/21 03:32:40;;;;;;;9.23;4.57;;;;;;;4.63;99.03;98621.13;5058023;28;20089;-68
2021/11/21 03:35:10;;;;;;;9.55;5.00;;;;;;;4.67;99.16;98609.84;5057557;28;20335;-68
2021/11/21 03:37:36;;;;;;;10.40;4.72;;;;;;;4.65;99.12;98619.41;5049008;28;20028;-68
2021/11/21 03:40:04;;;;;;;9.13;4.55;;;;;;;4.67;99.47;98617.66;5057879;28;20017;-68
2021/11/21 03:42:29;;;;;;;10.52;4.65;;;;;;;4.67;99.25;98622.88;5059920;28;20029;-68
2021/11/21 03:44:55;;;;;;;11.55;5.18;;;;;;;4.72;99.43;98615.94;5054033;28;20062;-68
2021/11/21 03:47:20;;;;;;;13.88;5.03;;;;;;;4.74;99.30;98609.00;5058748;28;20012;-68
2021/11/21 03:49:45;;;;;;;11.15;5.15;;;;;;;4.73;98.46;98607.25;5049494;28;20021;-68
2021/11/21 03:52:10;;;;;;;12.73;5.57;;;;;;;4.69;97.92;98595.09;5052047;28;20083;-68
2021/11/21 03:54:36;;;;;;;16.33;5.88;;;;;;;4.69;98.10;98595.09;5062570;28;20032;-68
2021/11/21 03:57:02;;;;;;;14.60;7.30;;;;;;;4.64;98.59;98586.38;5056018;28;20027;-68
2021/11/21 03:59:28;;;;;;;17.63;8.10;;;;;;;4.69;98.48;98595.09;5055515;28;20309;-68
2021/11/21 04:01:55;;;;;;;21.45;9.60;;;;;;;4.69;98.88;98595.09;5052540;28;20213;-68
2021/11/21 04:04:21;;;;;;;20.08;8.82;;;;;;;4.63;98.95;98593.34;5057832;28;20044;-68
2021/11/21 04:06:47;;;;;;;21.83;8.93;;;;;;;4.53;99.04;98589.81;5055537;28;20013;-68
2021/11/21 04:09:13;;;;;;;20.52;8.45;;;;;;;4.49;98.94;98592.41;5052572;28;20013;-68
2021/11/21 04:11:38;;;;;;;20.20;9.35;;;;;;;4.48;99.02;98581.13;5050546;28;20052;-68
2021/11/21 04:14:04;;;;;;;18.92;8.98;;;;;;;4.53;99.96;98572.44;5053139;28;20292;-68
2021/11/21 04:16:29;;;;;;;21.90;8.50;;;;;;;4.61;99.65;98570.72;5062119;28;20037;-68
2021/11/21 04:18:55;;;;;;;18.42;8.55;;;;;;;4.63;99.84;98569.88;5063721;28;20017;-68
2021/11/21 04:21:20;;;;;;;18.63;8.60;;;;;;;4.58;99.34;98566.38;5055008;28;20089;-68
2021/11/21 04:23:46;;;;;;;15.98;7.57;;;;;;;4.62;99.93;98572.47;5053902;28;20013;-68
2021/11/21 04:26:12;;;;;;;15.80;7.07;;;;;;;4.66;100.00;98605.50;5058439;28;20013;-68
2021/11/21 04:28:37;;;;;;;15.95;6.53;;;;;;;4.61;100.00;98570.72;5059055;28;20055;-68
2021/11/21 04:31:03;;;;;;;15.57;7.18;;;;;;;4.63;99.62;98574.22;5056103;28;20147;-68
2021/11/21 04:33:29;;;;;;;15.35;6.57;;;;;;;4.60;99.93;98568.97;5056688;28;20320;-68
2021/11/21 04:35:54;;;;;;;14.60;6.47;;;;;;;4.60;100.00;98558.56;5059663;28;20021;-68
2021/11/21 04:38:21;;;;;;;15.52;6.68;;;;;;;4.62;100.00;98562.06;5050195;28;20027;-68
2021/11/21 04:40:49;;;;;;;14.15;6.50;;;;;;;4.72;100.00;98569.03;5051139;28;20018;-68
2021/11/21 04:43:15;;;;;;;14.55;6.72;;;;;;;4.72;99.55;98569.03;5057840;28;20013;-68
2021/11/21 04:45:40;;;;;;;16.98;7.00;;;;;;;4.75;99.83;98563.81;5054165;28;20088;-68
2021/11/21 04:48:06;;;;;;;16.00;7.07;;;;;;;4.74;99.54;98562.94;5048680;28;20025;-68
2021/11/21 04:50:31;;;;;;;15.52;6.60;;;;;;;4.75;100.00;98558.59;5049043;28;20076;-68
2021/11/21 04:52:56;;;;;;;15.68;6.72;;;;;;;4.75;100.00;98558.59;5058408;28;20379;-68
2021/11/21 04:55:22;;;;;;;20.02;7.00;;;;;;;4.76;100.00;98565.56;5053833;28;20025;-68
2021/11/21 04:57:47;;;;;;;18.65;7.70;;;;;;;4.76;99.60;98553.41;5058072;28;20013;-68
2021/11/21 05:00:16;;;;;;;13.27;6.47;;;;;;;4.77;99.49;98556.88;5054801;28;20092;-68
2021/11/21 05:02:47;;;;;;;16.05;6.82;;;;;;;4.76;99.74;98560.34;5056670;28;20025;-68
2021/11/21 05:05:13;;;;;;;21.02;7.72;;;;;;;4.83;99.53;98556.88;5053713;28;20029;-68
2021/11/21 05:07:38;;;;;;;18.35;7.45;;;;;;;4.82;99.31;98555.13;5057090;28;20063;-68
2021/11/21 05:10:05;;;;;;;16.88;7.78;;;;;;;4.76;99.90;98549.91;5055147;28;20026;-68
2021/11/21 05:12:31;;;;;;;20.27;8.57;;;;;;;4.66;99.60;98548.16;5062285;28;20028;-68
2021/11/21 05:14:59;;;;;;;18.17;7.63;;;;;;;4.67;99.34;98549.88;5063008;28;20044;-68
2021/11/21 05:17:24;;;;;;;22.17;9.13;;;;;;;4.75;99.05;98548.19;5062554;28;20088;-68
2021/11/21 05:19:49;;;;;;;23.25;9.70;;;;;;;4.68;99.63;98546.44;5057474;28;20021;-68
2021/11/21 05:22:15;;;;;;;21.42;8.60;;;;;;;4.68;99.48;98539.47;5055648;28;20021;-68
2021/11/21 05:24:40;;;;;;;22.33;9.68;;;;;;;4.67;99.43;98544.66;5054722;28;20025;-68
2021/11/21 05:27:05;;;;;;;23.08;9.38;;;;;;;4.67;99.79;98552.50;5053492;28;20217;-68
2021/11/21 05:29:30;;;;;;;25.50;10.10;;;;;;;4.69;99.79;98554.25;5048746;28;20309;-68
2021/11/21 05:31:56;;;;;;;25.92;9.75;;;;;;;4.62;99.43;98546.41;5054561;28;20044;-68
2021/11/21 05:34:21;;;;;;;22.60;9.07;;;;;;;4.53;99.88;98553.31;5059725;28;20024;-68
2021/11/21 05:36:46;;;;;;;26.25;9.73;;;;;;;4.67;99.77;98544.66;5052890;28;20033;-68
2021/11/21 05:39:13;;;;;;;26.15;9.98;;;;;;;4.63;99.43;98548.13;5053828;28;20034;-68
2021/11/21 05:41:39;;;;;;;22.10;9.63;;;;;;;4.68;99.36;98546.44;5054217;28;20027;-68
2021/11/21 05:44:04;;;;;;;22.25;9.88;;;;;;;4.66;99.62;98548.16;5053296;28;20053;-68
2021/11/21 05:46:30;;;;;;;31.20;9.95;;;;;;;4.70;99.49;98542.06;5056007;28;20232;-68
2021/11/21 05:48:55;;;;;;;24.13;9.50;;;;;;;4.63;99.67;98537.72;5048041;28;20031;-68
2021/11/21 05:51:20;;;;;;;21.40;9.40;;;;;;;4.67;100.00;98539.44;5055701;28;20053;-68
2021/11/21 05:53:46;;;;;;;25.52;10.07;;;;;;;4.73;99.40;98540.34;5058846;28;20022;-68
2021/11/21 05:56:11;;;;;;;24.58;10.35;;;;;;;4.72;99.93;98532.53;5056109;28;20047;-68
2021/11/21 05:58:36;;;;;;;24.10;9.10;;;;;;;4.70;99.85;98536.84;5057695;28;20317;-68
2021/11/21 06:01:02;;;;;;;24.58;9.95;;;;;;;4.69;100.00;98538.63;5049807;28;20021;-68
2021/11/21 06:03:28;;;;;;;21.73;8.90;;;;;;;4.75;99.72;98542.97;5050065;28;20383;-68
2021/11/21 06:05:53;;;;;;;25.75;10.95;;;;;;;4.79;99.61;98539.47;5052354;28;20048;-68
2021/11/21 06:08:18;;;;;;;27.63;10.95;;;;;;;4.82;99.64;98539.50;5050169;28;20056;-68
2021/11/21 06:10:45;;;;;;;27.95;10.80;;;;;;;4.81;99.61;98542.97;5062544;28;20080;-68
2021/11/21 06:13:10;;;;;;;22.02;9.95;;;;;;;4.81;99.35;98533.41;5061793;28;20021;-68
2021/11/21 06:15:36;;;;;;;22.98;10.18;;;;;;;4.82;99.98;98529.06;5061864;28;20048;-68
2021/11/21 06:18:01;;;;;;;24.02;9.70;;;;;;;4.80;99.57;98525.56;5064243;28;20025;-68
2021/11/21 06:20:27;;;;;;;20.58;9.32;;;;;;;4.78;99.55;98517.75;5066039;28;20379;-68
2021/11/21 06:22:52;;;;;;;24.70;10.05;;;;;;;4.75;99.56;98516.91;5055382;28;20040;-68
2021/11/21 06:25:17;;;;;;;24.30;10.68;;;;;;;4.76;99.80;98513.41;5059830;28;20186;-68
2021/11/21 06:27:43;;;;;;;25.08;10.45;;;;;;;4.77;99.82;98517.78;5060514;28;20044;-68
2021/11/21 06:30:09;;;;;;;24.45;10.65;;;;;;;4.71;99.41;98516.00;5055739;28;20021;-68
2021/11/21 06:32:34;;;;;;;24.10;10.27;;;;;;;4.63;99.89;98522.06;5052096;28;20017;-68
2021/11/21 06:35:00;;;;;;;23.35;9.68;;;;;;;4.71;99.82;98515.16;5050524;28;20025;-68
2021/11/21 06:37:25;;;;;;;25.35;9.50;;;;;;;4.68;99.92;98516.00;5059851;28;20336;-68
2021/11/21 06:39:51;;;;;;;20.80;8.32;;;;;;;4.69;100.00;98517.75;5060571;28;20055;-68
2021/11/21 06:42:16;;;;;;;22.02;9.38;;;;;;;4.63;100.00;98517.75;5062629;28;20089;-68
2021/11/21 06:44:41;;;;;;;18.48;7.70;;;;;;;4.68;99.65;98520.38;5051502;28;20343;-68
2021/11/21 06:47:07;;;;;;;15.57;6.43;;;;;;;4.69;99.46;98522.09;5057409;28;20021;-68
2021/11/21 06:49:34;;;;;;;15.65;7.22;;;;;;;4.65;99.91;98515.16;5054765;28;20071;-68
2021/11/21 06:51:59;;;;;;;17.88;7.72;;;;;;;4.73;99.79;98516.88;5052911;28;20036;-68
2021/11/21 06:54:24;;;;;;;21.60;7.68;;;;;;;4.73;99.79;98516.00;5053556;28;20025;-68
2021/11/21 06:56:50;;;;;;;14.43;6.95;;;;;;;4.76;99.59;98518.63;5058097;28;20017;-68
2021/11/21 06:59:15;;;;;;;16.45;7.70;;;;;;;4.81;99.58;98511.69;5057907;28;20017;-68
2021/11/21 07:01:41;;;;;;;16.45;7.72;;;;;;;4.82;99.46;98518.63;5060280;28;20067;-68
2021/11/21 07:04:07;;;;;;;17.55;8.15;;;;;;;4.78;99.49;98511.69;5051997;28;20028;-68
2021/11/21 07:06:41;;;;;;;16.48;8.90;;;;;;;4.81;99.23;98509.94;5058305;28;20079;-68
2021/11/21 07:09:09;;;;;;;19.00;8.27;;;;;;;4.77;99.24;98515.16;5053120;28;20044;-68
2021/11/21 07:11:36;;;;;;;18.90;8.65;;;;;;;4.79;100.00;98513.41;5059117;28;20305;-68
2021/11/21 07:14:02;;;;;;;18.58;8.05;;;;;;;4.84;99.79;98522.13;5062121;28;20025;-68
2021/11/21 07:16:27;;;;;;;16.55;7.15;;;;;;;4.83;99.41;98521.25;5057188;28;20044;-68
2021/11/21 07:18:53;;;;;;;16.30;8.13;;;;;;;4.80;99.85;98520.34;5059033;28;20029;-68
2021/11/21 07:21:19;;;;;;;17.02;7.50;;;;;;;4.73;99.95;98518.63;5063018;28;20029;-68
2021/11/21 07:23:44;;;;;;;20.65;8.50;;;;;;;4.81;100.00;98522.97;5058155;28;20069;-68
2021/11/21 07:26:10;;;;;;;14.73;7.13;;;;;;;4.78;100.00;98522.13;5053273;28;20067;-68
2021/11/21 07:28:36;;;;;;;15.25;6.85;;;;;;;4.89;99.75;98528.19;5056256;28;20032;-68
2021/11/21 07:31:01;;;;;;;18.85;8.15;;;;;;;4.83;99.79;98518.63;5059316;28;20244;-68
2021/11/21 07:33:26;;;;;;;15.90;7.43;;;;;;;4.90;99.96;98517.78;5047308;28;20249;-68
2021/11/21 07:35:54;;;;;;;15.98;7.68;;;;;;;4.98;99.49;98517.78;5054155;28;20028;-68
2021/11/21 07:38:21;;;;;;;14.75;7.35;;;;;;;5.03;99.75;98516.06;5053124;28;20021;-68
2021/11/21 07:40:46;;;;;;;17.88;8.13;;;;;;;5.03;99.63;98521.28;5054408;28;20024;-68
2021/11/21 07:43:12;;;;;;;17.95;8.10;;;;;;;5.05;99.49;98522.13;5061809;28;20025;-68
2021/11/21 07:45:37;;;;;;;18.35;8.88;;;;;;;5.09;99.28;98521.28;5063285;28;20096;-68
2021/11/21 07:48:03;;;;;;;16.55;8.52;;;;;;;5.03;99.31;98519.50;5063670;28;20028;-68
2021/11/21 07:50:29;;;;;;;20.63;8.93;;;;;;;5.08;99.24;98522.13;5063920;28;20218;-68
2021/11/21 07:52:54;;;;;;;18.63;8.48;;;;;;;5.11;99.43;98516.91;5048226;28;20020;-68
2021/11/21 07:55:20;;;;;;;19.85;8.68;;;;;;;5.04;99.97;98510.84;5055087;28;20017;-68
2021/11/21 07:57:45;;;;;;;19.55;7.63;;;;;;;5.09;99.64;98513.47;5055771;28;20244;-68
2021/11/21 08:00:12;;;;;;;16.10;8.32;;;;;;;5.16;99.48;98509.97;5046087;28;20047;-68
2021/11/21 08:02:37;;;;;;;16.42;7.80;;;;;;;5.14;99.46;98509.09;5052898;28;20021;-68
2021/11/21 08:05:04;;;;;;;15.82;7.80;;;;;;;5.13;99.62;98512.56;5052488;28;20372;-68
2021/11/21 08:07:29;;;;;;;21.42;8.70;;;;;;;5.20;99.69;98514.31;5056914;28;20364;-68
2021/11/21 08:09:54;;;;;;;17.20;8.38;;;;;;;5.21;99.36;98509.09;5053438;28;20009;-68
2021/11/21 08:12:20;;;;;;;19.70;8.70;;;;;;;5.23;98.87;98506.50;5056857;28;20024;-68
2021/11/21 08:14:45;;;;;;;20.58;8.82;;;;;;;5.21;99.16;98511.69;5049834;28;20210;-68
2021/11/21 08:17:10;;;;;;;19.90;8.88;;;;;;;5.27;99.22;98518.66;5052113;28;20021;-68
2021/11/21 08:19:35;;;;;;;20.50;8.40;;;;;;;5.25;98.89;98513.44;5057161;28;20324;-68
2021/11/21 08:22:01;;;;;;;19.13;8.57;;;;;;;5.22;98.39;98515.19;5049537;28;20021;-68
2021/11/21 08:24:26;;;;;;;19.08;7.93;;;;;;;5.23;98.64;98514.31;5055492;28;20272;-68
2021/11/21 08:26:51;;;;;;;15.95;7.20;;;;;;;5.21;98.71;98513.44;5053276;28;20063;-68
2021/11/21 08:29:17;;;;;;;22.38;8.43;;;;;;;5.22;98.90;98517.81;5057789;28;20017;-68
2021/11/21 08:31:42;;;;;;;16.02;8.13;;;;;;;5.22;98.74;98509.97;5053208;28;20029;-68
2021/11/21 08:34:09;;;;;;;16.08;7.15;;;;;;;5.23;98.86;98506.50;5048893;28;20341;-68
2021/11/21 08:36:34;;;;;;;14.23;6.53;;;;;;;5.25;99.30;98503.00;5051483;28;20041;-68
2021/11/21 08:39:00;;;;;;;14.00;5.93;;;;;;;5.33;99.00;98508.22;5050056;28;20212;-68
2021/11/21 08:41:25;;;;;;;13.73;6.60;;;;;;;5.32;98.69;98511.69;5053116;28;20021;-68
2021/11/21 08:43:51;;;;;;;15.68;7.28;;;;;;;5.34;99.53;98509.94;5050820;28;20344;-68
2021/11/21 08:46:16;;;;;;;18.30;6.85;;;;;;;5.37;99.50;98509.94;5053622;28;20320;-68
2021/11/21 08:48:41;;;;;;;17.95;7.30;;;;;;;5.30;99.34;98513.44;5052076;28;20395;-68
2021/11/21 08:51:07;;;;;;;16.30;6.25;;;;;;;5.35;99.17;98503.88;5052597;28;20082;-68
2021/11/21 08:53:32;;;;;;;20.58;8.63;;;;;;;5.40;98.73;98507.34;5054624;28;20021;-68
2021/11/21 08:55:57;;;;;;;16.73;6.60;;;;;;;5.38;98.07;98502.13;5057853;28;20044;-68
2021/11/21 08:58:23;;;;;;;16.00;6.90;;;;;;;5.34;98.90;98499.50;5052615;28;20084;-68
2021/11/21 09:00:48;;;;;;;16.02;7.28;;;;;;;5.32;98.34;98501.25;5049604;28;20064;-68
2021/11/21 09:03:13;;;;;;;16.10;6.82;;;;;;;5.36;97.79;98503.00;5048731;28;20051;-68
2021/11/21 09:05:40;;;;;;;18.00;6.72;;;;;;;5.27;98.21;98503.88;5048115;28;20092;-68
2021/11/21 09:08:05;;;;;;;15.57;6.72;;;;;;;5.24;98.85;98503.00;5046443;28;20216;-68
2021/11/21 09:10:31;;;;;;;16.38;7.20;;;;;;;5.25;99.06;98502.16;5052112;28;20044;-68
2021/11/21 09:12:56;;;;;;;14.93;7.07;;;;;;;5.28;99.09;98504.75;5048238;28;20313;-68
2021/11/21 09:15:22;;;;;;;15.32;6.07;;;;;;;5.17;98.32;98496.94;5056550;28;20037;-68
2021/11/21 09:17:52;;;;;;;16.23;6.35;;;;;;;5.20;98.42;98501.25;5055159;28;20089;-68
2021/11/21 09:20:19;;;;;;;14.85;5.78;;;;;;;5.27;98.79;98513.44;5048969;28;20088;-68
2021/11/21 09:22:44;;;;;;;14.38;6.22;;;;;;;5.21;98.60;98508.22;5062026;28;20309;-68
2021/11/21 09:25:09;;;;;;;17.95;6.57;;;;;;;5.25;98.61;98515.19;5064028;28;20033;-68
2021/11/21 09:27:36;;;;;;;16.40;7.28;;;;;;;5.30;98.55;98503.00;5062826;28;20024;-68
2021/11/21 09:30:04;;;;;;;15.15;6.10;;;;;;;5.20;98.86;98517.81;5062432;28;20263;-68
2021/11/21 09:32:29;;;;;;;11.95;6.05;;;;;;;5.31;98.84;98505.59;5074257;28;20025;-68
2021/11/21 09:34:54;;;;;;;18.88;6.68;;;;;;;5.27;99.13;98503.00;5057223;28;20024;-68
2021/11/21 09:37:20;;;;;;;15.93;6.63;;;;;;;5.32;99.32;98496.06;5051892;28;20028;-68
2021/11/21 09:39:45;;;;;;;13.75;5.85;;;;;;;5.42;99.04;98510.81;5059391;28;20095;-68
2021/11/21 09:42:11;;;;;;;15.75;6.05;;;;;;;5.31;98.75;98502.16;5052627;28;20030;-68
2021/11/21 09:44:36;;;;;;;13.48;5.63;;;;;;;5.32;98.62;98506.50;5054625;28;20087;-68
2021/11/21 09:47:02;;;;;;;15.07;5.78;;;;;;;5.43;98.87;98502.09;5053304;28;20028;-68
2021/11/21 09:49:28;;;;;;;15.63;6.15;;;;;;;5.49;98.35;98499.50;5061654;28;20017;-68
2021/11/21 09:51:53;;;;;;;11.73;5.32;;;;;;;5.46;98.23;98500.38;5062969;28;20029;-68
2021/11/21 09:54:19;;;;;;;12.10;5.70;;;;;;;5.52;98.42;98499.50;5063753;28;20084;-68
2021/11/21 09:56:46;;;;;;;12.70;5.18;;;;;;;5.58;98.77;98504.72;5062432;28;20047;-68
2021/11/21 09:59:11;;;;;;;10.95;5.65;;;;;;;5.60;98.03;98497.75;5056327;28;20048;-68
2021/11/21 10:01:44;;;;;;;10.82;5.15;;;;;;;5.68;98.02;98501.19;5054688;28;20209;-68
2021/11/21 10:04:13;;;;;;;11.15;4.80;;;;;;;5.75;98.13;98508.13;5057353;28;20043;-68
2021/11/21 10:06:48;;;;;;;10.52;4.80;;;;;;;5.71;97.60;98503.81;5056457;28;20329;-68
2021/11/21 10:09:18;;;;;;;12.55;5.40;;;;;;;5.70;97.59;98499.47;5060432;28;20017;-68
2021/11/21 10:12:05;;;;;;;13.52;6.43;;;;;;;5.60;97.51;98493.38;5058715;28;20021;-68
2021/11/21 10:14:58;;;;;;;9.90;4.57;;;;;;;5.65;98.33;98490.75;5050055;28;20016;-68
2021/11/21 10:17:25;;;;;;;8.88;4.00;;;;;;;5.77;98.18;98491.63;5056700;28;20264;-68
2021/11/21 10:20:11;;;;;;;11.20;5.43;;;;;;;5.82;97.77;98495.09;5065203;28;20021;-68
2021/11/21 10:22:56;;;;;;;10.32;4.93;;;;;;;5.89;98.11;98490.75;5051022;28;20021;-68
2021/11/21 10:28:16;;;;;;;9.75;4.25;;;;;;;5.95;97.16;98475.06;5057721;28;20033;-68
2021/11/21 10:31:05;;;;;;;10.27;4.15;;;;;;;6.01;96.93;98469.81;5059634;28;20091;-68
2021/11/21 10:33:39;;;;;;;11.13;5.05;;;;;;;5.95;97.62;98468.06;5052487;28;20323;-68
2021/11/21 10:36:09;;;;;;;15.40;5.82;;;;;;;5.94;97.50;98457.63;5052550;28;20336;-68
2021/11/21 10:38:43;;;;;;;11.02;4.55;;;;;;;6.00;96.90;98452.38;5057831;28;20020;-68
2021/11/21 10:41:24;;;;;;;13.02;4.85;;;;;;;5.97;97.40;98448.03;5054584;28;20080;-68
2021/11/21 10:44:11;;;;;;;17.95;4.85;;;;;;;6.01;97.74;98454.13;5063503;28;20087;-68
2021/11/21 10:46:52;;;;;;;10.05;4.05;;;;;;;6.09;96.98;98444.50;5054279;28;20025;-68
2021/11/21 10:49:51;;;;;;;12.32;4.82;;;;;;;6.18;97.22;98436.63;5058422;28;20062;-68
2021/11/21 10:52:22;;;;;;;10.27;4.82;;;;;;;6.13;96.04;98433.16;5052136;28;20032;-68
2021/11/21 10:54:57;;;;;;;8.02;4.03;;;;;;;6.08;95.96;98425.34;5051519;28;20017;-68
2021/11/21 10:57:34;;;;;;;8.30;4.25;;;;;;;6.09;96.62;98421.00;5050094;28;20349;-68
2021/11/21 11:00:06;;;;;;;10.38;4.13;;;;;;;6.25;96.45;98418.28;5054189;28;20021;-68
2021/11/21 11:02:38;;;;;;;11.33;4.83;;;;;;;5.95;97.05;98417.59;5061337;28;20060;-68
2021/11/21 11:05:07;;;;;;;10.30;4.50;;;;;;;5.89;96.73;98420.22;5067942;28;20237;-68
2021/11/21 11:07:42;;;;;;;10.82;4.20;;;;;;;6.12;96.98;98416.63;5057934;28;20052;-68
2021/11/21 11:10:18;;;;;;;10.25;4.38;;;;;;;6.30;97.51;98415.66;5059190;28;20079;-68
2021/11/21 11:13:02;;;;;;;10.30;3.55;;;;;;;6.29;97.86;98412.16;5056178;28;20052;-68
2021/11/21 11:15:29;;;;;;;10.18;4.30;;;;;;;6.34;96.93;98412.13;5045950;28;20044;-68
2021/11/21 11:17:54;;;;;;;13.55;5.95;;;;;;;6.43;97.27;98401.63;5054696;28;20041;-68
2021/11/21 11:20:21;;;;;;;9.25;3.97;;;;;;;6.46;96.62;98402.44;5058843;28;20120;-68
2021/11/21 11:22:47;;;;;;;9.23;3.90;;;;;;;6.48;95.56;98403.31;5055527;28;20044;-68
2021/11/21 11:25:22;;;;;;;10.45;4.90;;;;;;;6.42;95.72;98392.03;5051758;28;20017;-68
2021/11/21 11:27:49;;;;;;;8.02;3.65;;;;;;;6.28;95.94;98397.38;5057751;28;20025;-68
2021/11/21 11:30:18;;;;;;;8.65;4.20;;;;;;;6.29;96.39;98398.22;5060105;28;20221;-68
2021/11/21 11:32:44;;;;;;;9.52;3.78;;;;;;;6.26;95.92;98393.88;5059492;28;20021;-68